Time;durP1;ratioP1;P1;durP2;ratioP2;P2;SDS_P1;SDS_P2;PMS_P1;PMS_P2;Temp;Humidity;BMP_temperature;BMP_pressure;BME280_temperature;BME280_humidity;BME280_pressure;Samples;Min_cycle;Max_cycle;Signal;HPM_P1;HPM_P2
2020/12/10 00:02:11;;;;;;;3.75;3.33;;;22.60;30.40;;;;;;5034821;28;20030;-48
2020/12/10 00:04:37;;;;;;;3.78;3.30;;;22.50;30.40;;;;;;5034165;28;20056;-49
2020/12/10 00:07:03;;;;;;;3.70;3.10;;;22.50;30.40;;;;;;5034759;28;20080;-50
2020/12/10 00:09:30;;;;;;;4.32;3.25;;;22.50;30.40;;;;;;5032334;28;20355;-48
2020/12/10 00:11:56;;;;;;;4.03;3.10;;;22.50;30.40;;;;;;5028967;28;20431;-51
2020/12/10 00:14:22;;;;;;;3.72;2.90;;;22.50;30.40;;;;;;5034852;28;20357;-48
2020/12/10 00:16:49;;;;;;;4.15;3.42;;;22.50;30.40;;;;;;5034206;28;20029;-50
2020/12/10 00:19:15;;;;;;;3.80;2.75;;;22.50;30.40;;;;;;5034972;28;20029;-52
2020/12/10 00:21:41;;;;;;;4.28;3.00;;;22.50;30.40;;;;;;5014189;28;20037;-53
2020/12/10 00:24:07;;;;;;;3.92;2.45;;;22.50;30.40;;;;;;5015232;28;20041;-49
2020/12/10 00:26:33;;;;;;;3.30;2.78;;;22.40;30.40;;;;;;5032948;28;20045;-51
2020/12/10 00:28:59;;;;;;;3.03;2.72;;;22.40;30.40;;;;;;5034880;28;20404;-46
2020/12/10 00:31:25;;;;;;;3.25;2.95;;;22.40;31.10;;;;;;5034180;28;20030;-53
2020/12/10 00:33:51;;;;;;;3.00;2.65;;;22.40;30.40;;;;;;5034866;28;20029;-54
2020/12/10 00:36:17;;;;;;;3.65;2.72;;;22.40;30.40;;;;;;5015877;28;20124;-51
2020/12/10 00:38:42;;;;;;;3.08;2.63;;;22.40;30.40;;;;;;5024443;28;20176;-48
2020/12/10 00:41:08;;;;;;;3.28;2.80;;;22.40;30.50;;;;;;5033863;28;20044;-50
2020/12/10 00:43:34;;;;;;;3.67;2.85;;;22.40;30.50;;;;;;5034731;28;20116;-50
2020/12/10 00:46:04;;;;;;;3.45;2.70;;;22.40;30.50;;;;;;5025222;28;20485;-51
2020/12/10 00:48:32;;;;;;;3.53;3.00;;;22.40;30.50;;;;;;5010758;28;20029;-51
2020/12/10 00:50:58;;;;;;;3.30;2.85;;;22.40;30.50;;;;;;5028375;28;20329;-52
2020/12/10 00:53:24;;;;;;;3.28;2.90;;;22.40;30.50;;;;;;5016983;28;20026;-47
2020/12/10 00:55:50;;;;;;;2.60;2.40;;;22.40;31.20;;;;;;5016221;28;20401;-50
2020/12/10 00:58:15;;;;;;;3.70;3.00;;;22.30;30.60;;;;;;5034129;28;20117;-47
2020/12/10 01:00:41;;;;;;;2.60;2.40;;;22.30;30.60;;;;;;5033788;28;20109;-53
2020/12/10 01:03:07;;;;;;;3.08;2.58;;;22.30;30.60;;;;;;5031567;28;20033;-47
2020/12/10 01:05:33;;;;;;;4.60;3.08;;;22.30;30.50;;;;;;5023581;28;20044;-45
2020/12/10 01:07:58;;;;;;;3.33;2.58;;;22.30;30.50;;;;;;5033623;28;20069;-47
2020/12/10 01:10:24;;;;;;;3.75;2.85;;;22.30;30.50;;;;;;5034044;28;20037;-49
2020/12/10 01:12:50;;;;;;;2.75;2.22;;;22.30;30.50;;;;;;5036924;28;20029;-47
2020/12/10 01:15:16;;;;;;;3.08;2.67;;;22.30;30.50;;;;;;5037785;28;20036;-50
2020/12/10 01:17:44;;;;;;;3.20;2.60;;;22.20;30.50;;;;;;5020141;28;20037;-47
2020/12/10 01:20:10;;;;;;;3.50;2.75;;;22.20;30.50;;;;;;5036390;28;20025;-50
2020/12/10 01:22:37;;;;;;;2.95;2.28;;;22.30;30.50;;;;;;5037111;28;20103;-47
2020/12/10 01:25:04;;;;;;;2.90;2.40;;;22.20;30.50;;;;;;5037897;28;20033;-49
2020/12/10 01:27:30;;;;;;;3.05;2.58;;;22.20;30.50;;;;;;5037913;28;20095;-52
2020/12/10 01:29:56;;;;;;;3.63;2.60;;;22.20;30.50;;;;;;5037768;28;20139;-50
2020/12/10 01:32:25;;;;;;;3.05;2.50;;;22.20;30.60;;;;;;5037705;28;20443;-50
2020/12/10 01:34:51;;;;;;;3.15;2.72;;;22.20;30.60;;;;;;5019458;28;20033;-49
2020/12/10 01:37:21;;;;;;;3.53;2.63;;;22.20;30.60;;;;;;5037678;28;20052;-51
2020/12/10 01:39:47;;;;;;;3.65;2.85;;;22.20;30.60;;;;;;5037002;28;20171;-49
2020/12/10 01:42:13;;;;;;;4.45;2.60;;;22.10;30.50;;;;;;5020343;28;20033;-48
2020/12/10 01:44:39;;;;;;;4.18;2.50;;;22.20;30.50;;;;;;5033640;28;20037;-49
2020/12/10 01:47:05;;;;;;;2.72;2.47;;;22.10;30.50;;;;;;5037596;28;20041;-49
2020/12/10 01:49:34;;;;;;;4.30;2.80;;;22.10;30.50;;;;;;5037242;28;20325;-49
2020/12/10 01:52:00;;;;;;;3.78;2.55;;;22.10;30.60;;;;;;5037792;28;20124;-46
2020/12/10 01:54:26;;;;;;;3.70;2.60;;;22.10;31.20;;;;;;5036358;28;20022;-49
2020/12/10 01:56:55;;;;;;;2.65;2.40;;;22.10;30.50;;;;;;5037737;28;20403;-51
2020/12/10 01:59:22;;;;;;;3.85;2.53;;;22.10;30.60;;;;;;5035295;28;20029;-52
2020/12/10 02:01:49;;;;;;;3.08;2.60;;;22.10;30.60;;;;;;5037643;28;20037;-52
2020/12/10 02:04:33;;;;;;;3.28;2.67;;;22.10;30.60;;;;;;5036239;28;20387;-51
2020/12/10 02:07:00;;;;;;;2.85;2.50;;;22.10;30.60;;;;;;5018058;28;20044;-51
2020/12/10 02:09:26;;;;;;;3.42;2.70;;;22.10;30.60;;;;;;5037216;28;20056;-49
2020/12/10 02:11:53;;;;;;;2.53;2.33;;;22.10;30.60;;;;;;5037271;28;20022;-48
2020/12/10 02:14:22;;;;;;;3.65;2.70;;;22.10;30.60;;;;;;5032713;28;20033;-51
2020/12/10 02:16:55;;;;;;;2.85;2.45;;;22.10;30.60;;;;;;5020097;28;20025;-49
2020/12/10 02:19:21;;;;;;;2.67;2.42;;;22.10;30.50;;;;;;5036993;28;20091;-48
2020/12/10 02:21:47;;;;;;;3.38;2.50;;;22.00;30.50;;;;;;5036631;28;20025;-50
2020/12/10 02:24:18;;;;;;;3.33;2.50;;;22.00;30.50;;;;;;5036358;28;20033;-50
2020/12/10 02:26:44;;;;;;;2.88;2.45;;;22.00;30.40;;;;;;5037085;28;20049;-52
2020/12/10 02:29:10;;;;;;;3.50;2.47;;;22.00;30.50;;;;;;5036198;28;20041;-46
2020/12/10 02:31:36;;;;;;;2.78;2.38;;;22.00;30.40;;;;;;5030804;28;20117;-49
2020/12/10 02:34:05;;;;;;;2.85;2.47;;;22.00;30.50;;;;;;5033588;28;20033;-50
2020/12/10 02:36:32;;;;;;;4.00;3.08;;;22.00;30.50;;;;;;5036023;28;20049;-48
2020/12/10 02:38:59;;;;;;;3.78;2.65;;;22.00;30.40;;;;;;5036321;28;20141;-48
2020/12/10 02:41:25;;;;;;;3.10;2.70;;;22.00;30.40;;;;;;5030668;28;20144;-51
2020/12/10 02:43:51;;;;;;;3.67;2.65;;;22.00;30.50;;;;;;5036107;28;20055;-50
2020/12/10 02:46:17;;;;;;;3.08;2.50;;;21.90;30.40;;;;;;5036293;28;20053;-48
2020/12/10 02:48:43;;;;;;;2.88;2.58;;;21.90;30.40;;;;;;5036423;28;20099;-48
2020/12/10 02:51:08;;;;;;;3.00;2.33;;;21.90;30.40;;;;;;5036120;28;20451;-49
2020/12/10 02:53:35;;;;;;;3.42;2.47;;;21.90;30.50;;;;;;5036214;28;20456;-49
2020/12/10 02:56:06;;;;;;;2.70;2.40;;;21.90;30.40;;;;;;5035006;28;20437;-47
2020/12/10 02:58:32;;;;;;;2.90;2.60;;;21.90;30.50;;;;;;5036045;28;20063;-49
2020/12/10 03:00:58;;;;;;;2.80;2.53;;;21.90;30.40;;;;;;5036057;28;20112;-49
2020/12/10 03:03:23;;;;;;;3.53;3.17;;;21.90;30.50;;;;;;5031376;28;20029;-51
2020/12/10 03:05:49;;;;;;;3.20;2.55;;;21.90;30.50;;;;;;5035466;28;20456;-45
2020/12/10 03:08:15;;;;;;;2.92;2.55;;;21.90;30.40;;;;;;5035899;28;20025;-48
2020/12/10 03:10:41;;;;;;;4.22;2.92;;;21.80;30.40;;;;;;5036017;28;20091;-51
2020/12/10 03:13:06;;;;;;;4.53;2.50;;;21.80;30.40;;;;;;5035927;28;20437;-48
2020/12/10 03:15:32;;;;;;;2.75;2.50;;;21.80;30.40;;;;;;5035529;28;20025;-50
2020/12/10 03:17:59;;;;;;;3.20;2.50;;;21.80;30.40;;;;;;5035623;28;20179;-46
2020/12/10 03:20:25;;;;;;;3.60;2.67;;;21.80;30.50;;;;;;5030375;28;20040;-46
2020/12/10 03:22:51;;;;;;;3.35;2.85;;;21.80;30.40;;;;;;5034691;28;20440;-50
2020/12/10 03:25:17;;;;;;;3.33;2.15;;;21.80;30.40;;;;;;5035159;28;20138;-52
2020/12/10 03:27:43;;;;;;;2.92;2.58;;;21.80;30.40;;;;;;5035267;28;20021;-49
2020/12/10 03:30:09;;;;;;;3.33;2.72;;;21.80;31.00;;;;;;5035243;28;20064;-50
2020/12/10 03:32:35;;;;;;;4.15;3.00;;;21.80;30.40;;;;;;5018054;28;20416;-51
2020/12/10 03:35:01;;;;;;;3.50;2.70;;;21.80;30.40;;;;;;5033841;28;20033;-47
2020/12/10 03:37:28;;;;;;;2.97;2.70;;;21.80;30.30;;;;;;5035045;28;20101;-52
2020/12/10 03:39:54;;;;;;;3.05;2.70;;;21.80;30.30;;;;;;5035374;28;20037;-50
2020/12/10 03:42:20;;;;;;;3.72;3.00;;;21.70;30.30;;;;;;5035334;28;20098;-50
2020/12/10 03:44:45;;;;;;;2.58;2.38;;;21.70;30.30;;;;;;5033217;28;20033;-49
2020/12/10 03:47:11;;;;;;;3.20;2.58;;;21.80;30.40;;;;;;5035204;28;20041;-50
2020/12/10 03:49:37;;;;;;;3.78;2.60;;;21.70;30.30;;;;;;5034865;28;20048;-49
2020/12/10 03:52:03;;;;;;;3.03;2.60;;;21.70;30.30;;;;;;5035123;28;20029;-52
2020/12/10 03:54:29;;;;;;;3.35;2.47;;;21.70;30.30;;;;;;5035070;28;20083;-47
2020/12/10 03:56:55;;;;;;;2.88;2.60;;;21.70;30.30;;;;;;5034857;28;20034;-49
2020/12/10 03:59:21;;;;;;;2.85;2.58;;;21.70;30.30;;;;;;5023594;28;20053;-50
2020/12/10 04:01:47;;;;;;;3.10;2.70;;;21.70;30.30;;;;;;5035669;28;20064;-50
2020/12/10 04:04:12;;;;;;;2.85;2.50;;;21.70;30.40;;;;;;5034713;28;20021;-51
2020/12/10 04:06:43;;;;;;;3.10;2.45;;;21.70;30.40;;;;;;5034148;28;20370;-52
2020/12/10 04:09:10;;;;;;;4.38;2.78;;;21.70;30.40;;;;;;5034552;28;20037;-49
2020/12/10 04:11:35;;;;;;;3.00;2.70;;;21.70;30.40;;;;;;5034976;28;20037;-51
2020/12/10 04:14:01;;;;;;;2.85;2.58;;;21.70;30.40;;;;;;5034766;28;20031;-49
2020/12/10 04:16:27;;;;;;;3.17;2.28;;;21.70;30.40;;;;;;5034501;28;20036;-50
2020/12/10 04:18:53;;;;;;;3.97;2.50;;;21.70;30.40;;;;;;5034578;28;20025;-51
2020/12/10 04:21:18;;;;;;;2.63;2.25;;;21.60;30.40;;;;;;5033818;28;20044;-50
2020/12/10 04:23:44;;;;;;;2.92;2.40;;;21.70;30.50;;;;;;5024422;28;20152;-50
2020/12/10 04:26:14;;;;;;;3.63;2.25;;;21.60;30.50;;;;;;5025902;28;20353;-51
2020/12/10 04:28:41;;;;;;;3.38;2.63;;;21.60;30.50;;;;;;5035125;28;20131;-54
2020/12/10 04:31:07;;;;;;;3.15;2.42;;;21.60;30.50;;;;;;5034266;28;20409;-52
2020/12/10 04:33:32;;;;;;;4.32;2.92;;;21.60;30.50;;;;;;5035156;28;20069;-52
2020/12/10 04:35:58;;;;;;;2.80;2.50;;;21.60;30.50;;;;;;5034224;28;20029;-47
2020/12/10 04:38:24;;;;;;;2.72;2.30;;;21.60;30.50;;;;;;5025565;28;20095;-47
2020/12/10 04:40:51;;;;;;;3.67;2.72;;;21.60;30.50;;;;;;5030008;28;20507;-48
2020/12/10 04:43:25;;;;;;;4.10;2.72;;;21.60;30.50;;;;;;5034697;28;20345;-48
2020/12/10 04:46:03;;;;;;;2.90;2.60;;;21.50;30.40;;;;;;5033131;28;20468;-45
2020/12/10 04:48:31;;;;;;;3.20;2.65;;;21.60;30.50;;;;;;5034567;28;20365;-47
2020/12/10 04:51:00;;;;;;;3.10;2.80;;;21.50;30.50;;;;;;5031422;28;20349;-46
2020/12/10 04:53:27;;;;;;;3.47;2.80;;;21.50;30.40;;;;;;5014708;28;20366;-50
2020/12/10 04:55:55;;;;;;;3.28;2.80;;;21.50;30.50;;;;;;5031768;28;20111;-49
2020/12/10 04:58:20;;;;;;;3.17;2.60;;;21.50;30.50;;;;;;5034486;28;20120;-46
2020/12/10 05:00:47;;;;;;;3.10;2.40;;;21.50;30.50;;;;;;5033819;28;20109;-49
2020/12/10 05:03:15;;;;;;;3.47;2.40;;;21.50;30.50;;;;;;5033865;28;20068;-47
2020/12/10 05:05:41;;;;;;;3.92;2.90;;;21.50;30.50;;;;;;5030398;28;20105;-49
2020/12/10 05:08:06;;;;;;;2.88;2.42;;;21.50;30.50;;;;;;5025735;28;20145;-46
2020/12/10 05:10:44;;;;;;;3.10;2.80;;;21.50;30.50;;;;;;5034132;28;20499;-47
2020/12/10 05:13:15;;;;;;;3.67;2.70;;;21.50;30.50;;;;;;5034241;28;20037;-48
2020/12/10 05:15:41;;;;;;;3.40;2.83;;;21.40;30.50;;;;;;5033299;28;20103;-48
2020/12/10 05:18:12;;;;;;;3.10;2.72;;;21.40;30.50;;;;;;5034226;28;20329;-48
2020/12/10 05:20:51;;;;;;;3.15;2.60;;;21.40;30.40;;;;;;5033957;28;20041;-53
2020/12/10 05:23:40;;;;;;;3.22;2.75;;;21.40;30.40;;;;;;5016794;28;20022;-47
2020/12/10 05:26:08;;;;;;;3.38;2.90;;;21.40;30.40;;;;;;5025931;28;20468;-47
2020/12/10 05:28:41;;;;;;;3.55;2.80;;;21.40;30.40;;;;;;5034220;28;20053;-48
2020/12/10 05:31:09;;;;;;;4.73;3.23;;;21.40;30.40;;;;;;5033894;28;20030;-48
2020/12/10 05:33:35;;;;;;;3.50;2.72;;;21.40;30.40;;;;;;5033629;28;20030;-49
2020/12/10 05:36:04;;;;;;;3.13;2.63;;;21.40;30.40;;;;;;5033653;28;20437;-48
2020/12/10 05:38:30;;;;;;;3.08;2.47;;;21.40;30.50;;;;;;5027528;28;20034;-49
2020/12/10 05:41:21;;;;;;;3.03;2.55;;;21.40;30.50;;;;;;5033419;28;20044;-47
2020/12/10 05:43:47;;;;;;;4.20;2.90;;;21.40;30.40;;;;;;5031643;28;20029;-50
2020/12/10 05:46:15;;;;;;;3.83;2.50;;;21.40;30.50;;;;;;5032841;28;20034;-47
2020/12/10 05:48:43;;;;;;;3.85;3.15;;;21.30;30.40;;;;;;5033939;28;20048;-49
2020/12/10 05:51:15;;;;;;;5.20;2.70;;;21.30;30.50;;;;;;5033301;28;20098;-51
2020/12/10 05:53:42;;;;;;;3.50;2.72;;;21.30;30.40;;;;;;5033211;28;20331;-48
2020/12/10 05:56:12;;;;;;;3.67;3.00;;;21.30;30.50;;;;;;5033645;28;20034;-53
2020/12/10 05:58:52;;;;;;;3.88;3.00;;;21.30;30.50;;;;;;5027268;28;20091;-48
2020/12/10 06:01:34;;;;;;;3.53;2.70;;;21.30;30.40;;;;;;5036167;28;20124;-47
2020/12/10 06:04:01;;;;;;;3.92;2.80;;;21.30;30.50;;;;;;5037245;28;20047;-51
2020/12/10 06:06:29;;;;;;;4.40;3.03;;;21.30;30.50;;;;;;5037187;28;20040;-48
2020/12/10 06:09:01;;;;;;;4.15;3.03;;;21.30;30.50;;;;;;5035225;28;20490;-49
2020/12/10 06:11:28;;;;;;;3.13;2.58;;;21.30;30.50;;;;;;5035895;28;20052;-49
2020/12/10 06:14:20;;;;;;;4.40;2.80;;;21.30;30.50;;;;;;5036114;28;20453;-47
2020/12/10 06:16:48;;;;;;;3.03;2.45;;;21.30;30.50;;;;;;5032814;28;20128;-51
2020/12/10 06:19:15;;;;;;;2.97;2.50;;;21.30;30.60;;;;;;5037266;28;20033;-50
2020/12/10 06:21:45;;;;;;;3.65;2.78;;;21.20;30.60;;;;;;5018131;28;20040;-48
2020/12/10 06:24:26;;;;;;;4.15;3.10;;;21.30;30.60;;;;;;5037057;28;20061;-49
2020/12/10 06:26:59;;;;;;;3.50;2.72;;;21.30;30.60;;;;;;5035573;28;20441;-52
2020/12/10 06:29:33;;;;;;;3.40;2.58;;;21.20;30.60;;;;;;5035531;28;20060;-47
2020/12/10 06:32:09;;;;;;;3.80;2.80;;;21.20;30.50;;;;;;5037095;28;20124;-49
2020/12/10 06:34:36;;;;;;;3.08;2.60;;;21.20;30.50;;;;;;5036236;28;20429;-49
2020/12/10 06:37:20;;;;;;;3.67;3.05;;;21.20;30.50;;;;;;5035967;28;20033;-48
2020/12/10 06:39:48;;;;;;;2.92;2.55;;;21.20;30.50;;;;;;5035390;28;20037;-50
2020/12/10 06:42:14;;;;;;;4.10;2.63;;;21.20;30.60;;;;;;5036074;28;20029;-50
2020/12/10 06:44:39;;;;;;;4.40;2.85;;;21.20;30.60;;;;;;5037176;28;20032;-49
2020/12/10 06:47:06;;;;;;;2.83;2.50;;;21.20;30.60;;;;;;5036212;28;20037;-49
2020/12/10 06:49:34;;;;;;;4.15;3.08;;;21.20;30.60;;;;;;5017731;28;20057;-47
2020/12/10 06:52:26;;;;;;;4.05;2.85;;;21.20;30.60;;;;;;5036346;28;20029;-51
2020/12/10 06:55:10;;;;;;;3.22;2.60;;;21.20;30.60;;;;;;5027392;28;20118;-49
2020/12/10 06:58:12;;;;;;;3.28;2.53;;;21.20;30.60;;;;;;5035857;28;20045;-48
2020/12/10 07:00:43;;;;;;;3.22;2.83;;;21.20;30.60;;;;;;5036225;28;20238;-49
2020/12/10 07:03:13;;;;;;;5.43;2.78;;;21.20;30.60;;;;;;5034889;28;20033;-51
2020/12/10 07:05:39;;;;;;;3.20;2.63;;;21.10;30.60;;;;;;5036370;28;20112;-51
2020/12/10 07:08:09;;;;;;;4.15;3.08;;;21.10;30.60;;;;;;5035329;28;20108;-50
2020/12/10 07:10:40;;;;;;;3.60;2.90;;;21.10;30.60;;;;;;5035218;28;20069;-48
2020/12/10 07:13:06;;;;;;;3.30;2.42;;;21.10;30.70;;;;;;5035051;28;20078;-50
2020/12/10 07:15:32;;;;;;;3.72;2.80;;;21.10;30.70;;;;;;5036765;28;20033;-46
2020/12/10 07:18:00;;;;;;;4.65;2.83;;;21.10;30.70;;;;;;5027098;28;20030;-50
2020/12/10 07:20:28;;;;;;;2.88;2.63;;;21.10;30.70;;;;;;5016321;28;20132;-50
2020/12/10 07:22:54;;;;;;;3.25;2.75;;;21.10;30.70;;;;;;5029791;28;20445;-49
2020/12/10 07:25:21;;;;;;;3.05;2.50;;;21.10;30.70;;;;;;5035568;28;20040;-52
2020/12/10 07:27:47;;;;;;;3.35;2.80;;;21.10;30.60;;;;;;5015614;28;20047;-48
2020/12/10 07:30:14;;;;;;;3.78;3.05;;;21.10;30.70;;;;;;5018769;28;20122;-50
2020/12/10 07:32:40;;;;;;;2.90;2.33;;;21.00;30.70;;;;;;5013384;28;20026;-49
2020/12/10 07:35:07;;;;;;;3.33;2.90;;;21.00;30.70;;;;;;5016002;28;20040;-49
2020/12/10 07:37:33;;;;;;;3.35;2.92;;;21.00;30.70;;;;;;5015791;28;20065;-47
2020/12/10 07:40:09;;;;;;;3.60;2.97;;;21.00;30.70;;;;;;5015344;28;20091;-47
2020/12/10 07:42:36;;;;;;;2.92;2.60;;;21.00;30.70;;;;;;5012993;28;20092;-52
2020/12/10 07:45:15;;;;;;;3.53;2.55;;;21.00;31.20;;;;;;4993874;28;20037;-47
2020/12/10 07:47:42;;;;;;;2.63;2.28;;;21.20;31.70;;;;;;5014119;28;20060;-45
2020/12/10 07:50:20;;;;;;;4.47;2.40;;;21.30;31.80;;;;;;5014766;28;20045;-48
2020/12/10 07:52:48;;;;;;;3.22;2.55;;;21.40;31.90;;;;;;5007748;28;20034;-46
2020/12/10 07:55:17;;;;;;;5.05;2.78;;;21.60;31.80;;;;;;4995886;28;20437;-47
2020/12/10 07:57:52;;;;;;;2.55;2.13;;;21.80;31.80;;;;;;5011129;28;20041;-53
2020/12/10 08:00:18;;;;;;;;;;;21.80;31.70;;;;;;5014613;28;20030;-50
2020/12/10 08:02:57;;;;;;;4.55;2.20;;;21.90;31.60;;;;;;5013905;28;19909;-52
2020/12/10 08:05:23;;;;;;;2.95;2.00;;;21.90;31.50;;;;;;5009417;28;20034;-52
2020/12/10 08:07:53;;;;;;;3.40;2.33;;;21.90;31.40;;;;;;5014504;28;20037;-54
2020/12/10 08:10:20;;;;;;;3.72;2.65;;;21.90;31.30;;;;;;5014389;28;20037;-50
2020/12/10 08:13:14;;;;;;;2.10;1.90;;;21.90;31.20;;;;;;5014726;28;20342;-49
2020/12/10 08:15:41;;;;;;;3.77;2.50;;;22.00;31.10;;;;;;4998736;28;20037;-50
2020/12/10 08:18:14;;;;;;;3.03;2.53;;;22.00;31.10;;;;;;5013946;28;20032;-46
2020/12/10 08:20:59;;;;;;;3.13;2.50;;;22.00;31.00;;;;;;5015352;28;20038;-49
2020/12/10 08:23:25;;;;;;;2.58;2.33;;;22.00;30.90;;;;;;4991366;28;20161;-49
2020/12/10 08:26:09;;;;;;;3.75;2.65;;;22.00;30.90;;;;;;5013179;28;20120;-49
2020/12/10 08:28:35;;;;;;;4.95;2.55;;;22.00;30.80;;;;;;5014740;28;20053;-48
2020/12/10 08:31:01;;;;;;;2.67;2.08;;;22.10;30.80;;;;;;5032887;28;20490;-47
2020/12/10 08:33:37;;;;;;;3.22;2.38;;;22.00;30.80;;;;;;5032610;28;20365;-51
2020/12/10 08:36:04;;;;;;;2.65;2.35;;;22.10;30.80;;;;;;5032620;28;20051;-51
2020/12/10 08:38:30;;;;;;;3.05;2.60;;;22.00;30.70;;;;;;5015235;28;20025;-49
2020/12/10 08:40:57;;;;;;;3.60;2.60;;;22.10;30.70;;;;;;5032724;28;20029;-48
2020/12/10 08:43:24;;;;;;;3.65;2.70;;;22.10;30.60;;;;;;5032585;28;20068;-53
2020/12/10 08:45:50;;;;;;;3.13;2.53;;;22.10;30.60;;;;;;5032408;28;20337;-49
2020/12/10 08:48:27;;;;;;;3.75;3.08;;;22.10;30.60;;;;;;5032285;28;20134;-47
2020/12/10 08:50:57;;;;;;;5.32;2.88;;;22.10;30.50;;;;;;5030309;28;20038;-49
2020/12/10 08:53:24;;;;;;;3.70;2.85;;;22.10;30.40;;;;;;5029226;28;20348;-48
2020/12/10 08:55:55;;;;;;;3.95;2.78;;;22.10;30.40;;;;;;5032653;28;20127;-52
2020/12/10 08:58:27;;;;;;;3.80;3.40;;;22.10;30.30;;;;;;5031124;28;20120;-46
2020/12/10 09:00:54;;;;;;;3.70;3.28;;;22.10;30.10;;;;;;5029444;28;20048;-47
2020/12/10 09:03:21;;;;;;;3.75;3.30;;;22.10;30.00;;;;;;5031915;28;20040;-46
2020/12/10 09:05:47;;;;;;;3.85;3.00;;;22.20;30.00;;;;;;5027437;28;20076;-50
2020/12/10 09:08:13;;;;;;;3.70;2.97;;;22.20;30.00;;;;;;5031583;28;20036;-48
2020/12/10 09:10:40;;;;;;;3.58;2.95;;;22.20;30.00;;;;;;5033740;28;20045;-49
2020/12/10 09:13:06;;;;;;;6.13;2.67;;;22.30;30.00;;;;;;5028901;28;20449;-52
2020/12/10 09:15:32;;;;;;;4.60;2.58;;;22.30;30.00;;;;;;5030657;28;20044;-47
2020/12/10 09:17:58;;;;;;;2.92;2.63;;;22.40;30.00;;;;;;5033343;28;20033;-50
2020/12/10 09:20:24;;;;;;;3.28;2.65;;;22.40;30.00;;;;;;5032184;28;20471;-51
2020/12/10 09:22:50;;;;;;;2.53;2.30;;;22.40;30.00;;;;;;5034013;28;20111;-46
2020/12/10 09:25:16;;;;;;;3.42;2.72;;;22.50;30.00;;;;;;5033739;28;20076;-51
2020/12/10 09:27:42;;;;;;;2.53;2.22;;;22.60;30.00;;;;;;5034096;28;20507;-47
2020/12/10 09:30:09;;;;;;;2.92;2.60;;;22.70;30.00;;;;;;5033247;28;20068;-46
2020/12/10 09:32:36;;;;;;;2.90;2.42;;;22.70;30.00;;;;;;4997726;28;20053;-51
2020/12/10 09:35:06;;;;;;;3.70;2.53;;;22.80;30.00;;;;;;5027417;28;20044;-50
2020/12/10 09:37:33;;;;;;;3.08;2.50;;;22.80;29.90;;;;;;5037132;28;20026;-47
2020/12/10 09:39:59;;;;;;;3.38;2.80;;;22.90;29.90;;;;;;5038038;28;20116;-52
2020/12/10 09:42:25;;;;;;;3.42;2.65;;;23.00;29.90;;;;;;5036887;28;20096;-50
2020/12/10 09:44:51;;;;;;;3.35;2.50;;;23.10;29.90;;;;;;5037257;28;20037;-50
2020/12/10 09:47:17;;;;;;;2.38;1.98;;;23.10;29.80;;;;;;5037675;28;20053;-50
2020/12/10 09:49:42;;;;;;;3.08;2.17;;;23.20;29.80;;;;;;5037044;28;20098;-48
2020/12/10 09:52:09;;;;;;;3.47;2.88;;;23.20;29.80;;;;;;5034148;28;20061;-49
2020/12/10 09:54:47;;;;;;;3.00;2.30;;;23.30;29.70;;;;;;5037844;28;20041;-52
2020/12/10 09:57:38;;;;;;;2.65;2.22;;;23.40;29.70;;;;;;5036009;28;20444;-49
2020/12/10 10:00:07;;;;;;;2.35;2.15;;;23.50;29.70;;;;;;5036851;28;20119;-48
2020/12/10 10:02:37;;;;;;;2.58;2.28;;;23.50;29.60;;;;;;5037224;28;20463;-49
2020/12/10 10:05:04;;;;;;;2.38;2.15;;;23.60;29.60;;;;;;5036405;28;20056;-53
2020/12/10 10:07:29;;;;;;;2.20;1.95;;;23.70;29.50;;;;;;5037603;28;20433;-51
2020/12/10 10:09:55;;;;;;;2.65;2.10;;;23.80;29.50;;;;;;5037208;28;20030;-52
2020/12/10 10:12:21;;;;;;;2.67;2.20;;;23.80;29.40;;;;;;5037621;28;20025;-51
2020/12/10 10:14:48;;;;;;;2.78;2.20;;;23.90;29.40;;;;;;5021476;28;20412;-51
2020/12/10 10:17:14;;;;;;;2.33;2.08;;;23.90;29.30;;;;;;5025480;28;20029;-51
2020/12/10 10:19:40;;;;;;;3.13;1.98;;;24.00;29.30;;;;;;5036451;28;20068;-48
2020/12/10 10:22:05;;;;;;;2.30;2.10;;;24.00;29.20;;;;;;5036806;28;20057;-49
2020/12/10 10:24:32;;;;;;;2.70;2.20;;;24.10;29.10;;;;;;5037058;28;20033;-49
2020/12/10 10:26:58;;;;;;;2.30;2.10;;;24.10;29.00;;;;;;5036997;28;20057;-51
2020/12/10 10:29:24;;;;;;;2.58;2.00;;;24.20;28.90;;;;;;5036552;28;20045;-52
2020/12/10 10:31:51;;;;;;;3.17;2.33;;;24.20;28.80;;;;;;5029312;28;20041;-52
2020/12/10 10:34:17;;;;;;;2.63;2.10;;;24.20;28.80;;;;;;5016898;28;20473;-51
2020/12/10 10:36:44;;;;;;;2.78;2.30;;;24.30;28.70;;;;;;5046457;28;20107;-47
2020/12/10 10:39:10;;;;;;;2.58;2.10;;;24.30;28.60;;;;;;5056918;28;20033;-47
2020/12/10 10:41:44;;;;;;;3.75;2.10;;;24.30;28.60;;;;;;5028823;28;20449;-47
2020/12/10 10:44:10;;;;;;;2.35;2.10;;;24.30;28.50;;;;;;5024908;28;20117;-48
2020/12/10 10:46:36;;;;;;;3.33;2.40;;;24.30;28.50;;;;;;5024226;28;20491;-47
2020/12/10 10:49:03;;;;;;;2.25;1.98;;;24.30;28.40;;;;;;5025813;28;20145;-50
2020/12/10 10:51:29;;;;;;;2.28;2.08;;;24.30;28.40;;;;;;5036314;28;20175;-46
2020/12/10 10:53:55;;;;;;;4.00;2.30;;;24.30;28.40;;;;;;5036266;28;20072;-48
2020/12/10 10:56:22;;;;;;;2.50;2.30;;;24.30;28.30;;;;;;5035262;28;20040;-48
2020/12/10 10:58:48;;;;;;;2.45;2.10;;;24.40;28.30;;;;;;5036088;28;20033;-50
2020/12/10 11:01:14;;;;;;;2.45;2.15;;;24.40;28.30;;;;;;5033867;28;20026;-48
2020/12/10 11:03:41;;;;;;;3.03;2.67;;;24.40;28.30;;;;;;5033374;28;20380;-49
2020/12/10 11:06:08;;;;;;;2.95;2.50;;;24.30;28.30;;;;;;5034710;28;20044;-46
2020/12/10 11:08:34;;;;;;;2.85;2.50;;;24.30;28.20;;;;;;5025959;28;20434;-47
2020/12/10 11:11:00;;;;;;;2.30;2.10;;;24.30;28.20;;;;;;5035682;28;20095;-46
2020/12/10 11:13:25;;;;;;;3.28;2.70;;;24.30;28.20;;;;;;5036010;28;20445;-47
2020/12/10 11:15:51;;;;;;;3.15;2.45;;;24.30;28.20;;;;;;5037625;28;20094;-53
2020/12/10 11:18:17;;;;;;;3.00;2.30;;;24.30;28.20;;;;;;5035340;28;20113;-48
2020/12/10 11:20:43;;;;;;;3.45;2.63;;;24.30;28.10;;;;;;5035455;28;20044;-48
2020/12/10 11:23:09;;;;;;;3.17;2.38;;;24.30;28.10;;;;;;5016799;28;20029;-48
2020/12/10 11:25:34;;;;;;;2.85;2.55;;;24.30;28.10;;;;;;5018433;28;20042;-51
2020/12/10 11:28:00;;;;;;;3.17;2.58;;;24.30;28.10;;;;;;5035188;28;20428;-47
2020/12/10 11:30:26;;;;;;;4.03;2.95;;;24.30;28.10;;;;;;5016485;28;20072;-49
2020/12/10 11:32:52;;;;;;;4.32;2.28;;;24.30;28.60;;;;;;5034860;28;20072;-50
2020/12/10 11:35:17;;;;;;;3.17;2.72;;;24.30;28.10;;;;;;5035154;28;20078;-49
2020/12/10 11:37:43;;;;;;;3.35;2.80;;;24.30;28.10;;;;;;5035026;28;20029;-50
2020/12/10 11:40:09;;;;;;;3.47;2.60;;;24.30;28.10;;;;;;5030753;28;20030;-45
2020/12/10 11:42:35;;;;;;;3.28;2.58;;;24.30;28.10;;;;;;5032618;28;20025;-46
2020/12/10 11:45:03;;;;;;;6.00;2.30;;;24.20;28.30;;;;;;5028662;28;20479;-51
2020/12/10 11:47:29;;;;;;;2.75;2.40;;;24.30;28.60;;;;;;5031673;28;20041;-47
2020/12/10 11:49:55;;;;;;;4.47;2.42;;;24.30;28.80;;;;;;5034093;28;20036;-47
2020/12/10 11:52:21;;;;;;;3.10;2.45;;;24.30;29.10;;;;;;5034841;28;20437;-53
2020/12/10 11:54:47;;;;;;;3.20;2.58;;;24.40;29.40;;;;;;5032414;28;20460;-47
2020/12/10 11:57:13;;;;;;;2.92;2.38;;;24.40;29.60;;;;;;5034856;28;20139;-55
2020/12/10 11:59:39;;;;;;;3.47;2.50;;;24.40;29.70;;;;;;5033310;28;20034;-55
2020/12/10 12:02:08;;;;;;;4.93;2.45;;;24.50;29.80;;;;;;5020707;28;20046;-58
2020/12/10 12:04:34;;;;;;;3.38;2.72;;;24.50;29.80;;;;;;5030484;28;20036;-54
2020/12/10 12:07:01;;;;;;;3.40;2.92;;;24.50;29.90;;;;;;5035917;28;20041;-47
2020/12/10 12:09:27;;;;;;;3.70;2.67;;;24.60;29.80;;;;;;5032395;28;20503;-49
2020/12/10 12:11:53;;;;;;;4.15;2.47;;;24.60;29.60;;;;;;5032428;28;20357;-52
2020/12/10 12:14:19;;;;;;;3.50;2.53;;;24.60;29.60;;;;;;5031082;28;20359;-60
2020/12/10 12:16:46;;;;;;;2.55;2.35;;;24.60;29.60;;;;;;5015938;28;20040;-58
2020/12/10 12:19:12;;;;;;;4.18;2.42;;;24.70;29.50;;;;;;5032642;28;20113;-57
2020/12/10 12:21:37;;;;;;;5.57;2.45;;;24.70;29.40;;;;;;5033374;28;20412;-54
2020/12/10 12:24:03;;;;;;;3.17;2.70;;;24.70;29.40;;;;;;5032103;28;20041;-56
2020/12/10 12:26:31;;;;;;;2.65;2.42;;;24.70;29.40;;;;;;5031916;28;20045;-57
2020/12/10 12:28:58;;;;;;;2.95;2.40;;;24.80;29.50;;;;;;5014584;28;20100;-61
2020/12/10 12:31:31;;;;;;;3.92;2.70;;;24.80;29.60;;;;;;5020670;28;20072;-56
2020/12/10 12:33:57;;;;;;;3.28;2.88;;;24.80;29.50;;;;;;5032762;28;20131;-65
2020/12/10 12:36:23;;;;;;;2.92;2.58;;;24.80;29.50;;;;;;5041652;28;20346;-56
2020/12/10 12:38:49;;;;;;;5.00;2.35;;;24.80;29.40;;;;;;5043515;28;20041;-58
2020/12/10 12:41:15;;;;;;;3.25;2.72;;;24.80;29.40;;;;;;5032172;28;20051;-58
2020/12/10 12:43:41;;;;;;;2.85;2.55;;;24.80;29.50;;;;;;5032031;28;20030;-60
2020/12/10 12:46:07;;;;;;;3.20;2.33;;;24.80;29.30;;;;;;5028103;28;20033;-57
2020/12/10 12:48:34;;;;;;;4.57;2.75;;;24.80;29.30;;;;;;5033104;28;20029;-52
2020/12/10 12:51:00;;;;;;;3.15;2.47;;;24.80;29.20;;;;;;5031865;28;20037;-54
2020/12/10 12:53:26;;;;;;;5.45;2.40;;;24.80;29.20;;;;;;5031832;28;20025;-55